This is the latest recevied weather packets stored in our database for station/object KC8ZBC. If no packets are shown the sender has not sent any weather packets the latest 1 day(s).
| Time | Temp. | Humidity | Pressure | Rain* | Wind** | Luminosity | Snow |
|---|---|---|---|---|---|---|---|
| 1778095178 | 10° C | 49% | 988 hPa | 0 mm | - | 159 W/m² | - |
| 1778094268 | 10° C | 48% | 987.8 hPa | 0 mm | - | 171 W/m² | - |
| 1778093965 | 9.44° C | 50% | 987.8 hPa | 0 mm | - | 175 W/m² | - |
| 1778093662 | 9.44° C | 50% | 987.7 hPa | 0 mm | - | 214 W/m² | - |
| 1778093359 | 10° C | 49% | 987.6 hPa | 0 mm | - | 155 W/m² | - |
| 1778093056 | 9.44° C | 50% | 987.7 hPa | 0 mm | - | 219 W/m² | - |
| 1778091238 | 9.44° C | 53% | 987.7 hPa | 0 mm | - | 143 W/m² | - |
| 1778090935 | 8.89° C | 53% | 987.6 hPa | 0 mm | - | 147 W/m² | - |
| 1778090631 | 8.89° C | 54% | 988 hPa | 0 mm | - | 97 W/m² | - |
| 1778089419 | 9.44° C | 54% | 988 hPa | 0 mm | - | 175 W/m² | - |
| 1778088813 | 10° C | 54% | 987.9 hPa | 0 mm | - | 261 W/m² | - |
| 1778088207 | 10° C | 53% | 987.9 hPa | 0 mm | - | 568 W/m² | - |
| 1778087904 | 9.44° C | 54% | 988 hPa | 0 mm | - | 376 W/m² | - |
| 1778087601 | 8.89° C | 56% | 987.9 hPa | 0 mm | - | 184 W/m² | - |
| 1778087299 | 8.89° C | 57% | 988 hPa | 0 mm | - | 100 W/m² | - |
| 1778086694 | 8.33° C | 57% | 988 hPa | 0 mm | - | 331 W/m² | - |
| 1778084872 | 8.89° C | 57% | 987.8 hPa | 0 mm | - | 286 W/m² | - |
| 1778084267 | 8.33° C | 59% | 988.2 hPa | 0 mm | - | 131 W/m² | - |
| 1778083662 | 9.44° C | 57% | 987.9 hPa | 0 mm | - | 445 W/m² | - |
| 1778083057 | 8.89° C | 57% | 987.7 hPa | 0 mm | - | 305 W/m² | - |
| 1778080107 | 8.89° C | 57% | 987.6 hPa | 0 mm | - | 656 W/m² | - |
| 1778078591 | 7.78° C | 60% | 987.5 hPa | 0 mm | - | 543 W/m² | - |
| 1778077986 | 7.78° C | 62% | 987.5 hPa | 0 mm | - | 618 W/m² | - |
| 1778077382 | 7.78° C | 63% | 987.3 hPa | 0 mm | - | 593 W/m² | - |
| 1778077080 | 7.78° C | 63% | 987.4 hPa | 0 mm | - | 568 W/m² | - |
* Rain latest hour (hover to see other rain measurements)
** Current wind speed in m/s (hover to see current wind gust speed)